Fulton, CA (95439)

8:12 AM PST on February 12, 2016 (GMT -0800)
Urban Tree Farm Nursery | | Change Station
CLOSE
Current Station
Personal Weather Station
Location: Fulton, CA
Elevation: 135 ft
Nearby Weather Stations

Elev 135 ft 38.49 °N, 122.77 °W | Updated 8 minutes ago

Patches of Fog
Patches Fog
46.7 °F
Feels Like 47 °F
N
0.0
Wind Variable Wind from ENE
Gusts 0.0 mph

Today
High -- | Low -- °F
--% Chance of Precip.
Yesterday
High -- | Low -- °F
Precip. -- in
Pressure 30.20 in
Visibility 10.0 miles
Clouds Scattered Clouds 20000 ft
Windchill 47 °F
Dew Point 46 °F
Humidity 97%
Rainfall 0.00 in
Snow Depth Not available.
7:05 AM 5:45 PM
Waxing Crescent, 21% visible
METAR KSTS 121553Z 00000KT 10SM BCFG SCT200 07/07 A3022 RMK AO2 SLP227 T00720067
Pressure 30.20 in
Visibility 10.0 miles
Clouds Scattered Clouds 20000 ft
Windchill 47 °F
Dew Point 46 °F
Humidity 97%
Rainfall 0.00 in
Snow Depth Not available.
7:05 AM 5:45 PM
Waxing Crescent, 21% visible
METAR KSTS 121553Z 00000KT 10SM BCFG SCT200 07/07 A3022 RMK AO2 SLP227 T00720067

10-Day Weather Forecast

Almanac

Astronomy

Feb. 12, 2016 Rise Set
Actual Time
Civil Twilight
Nautical Twilight
Astronomical Twilight
Moon
Length of Visible Light
Length of Day
Tomorrow will be .
, % of the Moon is Illuminated

Today's Extremes

State Highs State Lows

Community

WunderPhotos

Upload Photos

1,892,345 photos uploaded!

WunderBlog® & News

Nearby

Air Quality

  Air Quality AQ Index Pollutant
Not available.

Snow Depth

Station Depth Elevation

Earthquake Activity

City Distance Mag. Time & Date
Minimum magnitude displayed is 2.5.

Coastal Water Temperatures

Place Temperature

Stations

Nearby Weather Stations

Station Location Temp. Windchill Dew Point Humidity Wind Precip. Elev Updated Type
                   

Watches & Warnings

There are currently no watches in effect.